sensor_id;sensor_type;location;lat;lon;timestamp;temperature;humidity
12771;DHT22;6449;47.666;9.160;2022-11-06T00:03:21;5.80;99.90
12771;DHT22;6449;47.666;9.160;2022-11-06T00:08:26;5.70;99.90
12771;DHT22;6449;47.666;9.160;2022-11-06T00:13:24;5.70;99.90
12771;DHT22;6449;47.666;9.160;2022-11-06T00:18:17;5.60;99.90
12771;DHT22;6449;47.666;9.160;2022-11-06T00:23:10;5.60;99.90
12771;DHT22;6449;47.666;9.160;2022-11-06T00:28:05;5.50;99.90
12771;DHT22;6449;47.666;9.160;2022-11-06T00:32:58;5.50;99.90
12771;DHT22;6449;47.666;9.160;2022-11-06T00:37:52;5.40;99.90
12771;DHT22;6449;47.666;9.160;2022-11-06T00:42:45;5.70;99.90
12771;DHT22;6449;47.666;9.160;2022-11-06T00:47:40;5.80;99.90
12771;DHT22;6449;47.666;9.160;2022-11-06T00:52:33;6.00;99.90
12771;DHT22;6449;47.666;9.160;2022-11-06T00:57:27;5.80;99.90
12771;DHT22;6449;47.666;9.160;2022-11-06T01:02:20;5.60;99.90
12771;DHT22;6449;47.666;9.160;2022-11-06T01:07:15;5.70;99.90
12771;DHT22;6449;47.666;9.160;2022-11-06T01:12:08;5.90;99.90
12771;DHT22;6449;47.666;9.160;2022-11-06T01:17:04;5.90;99.90
12771;DHT22;6449;47.666;9.160;2022-11-06T01:21:58;5.90;99.90
12771;DHT22;6449;47.666;9.160;2022-11-06T01:26:53;5.80;99.90
12771;DHT22;6449;47.666;9.160;2022-11-06T01:32:07;5.80;99.90
12771;DHT22;6449;47.666;9.160;2022-11-06T01:37:00;5.90;99.90
12771;DHT22;6449;47.666;9.160;2022-11-06T01:41:55;5.70;99.90
12771;DHT22;6449;47.666;9.160;2022-11-06T01:46:48;5.80;99.90
12771;DHT22;6449;47.666;9.160;2022-11-06T01:51:45;5.70;99.90
12771;DHT22;6449;47.666;9.160;2022-11-06T01:56:42;5.70;99.90
12771;DHT22;6449;47.666;9.160;2022-11-06T02:01:39;5.80;99.90
12771;DHT22;6449;47.666;9.160;2022-11-06T02:06:33;5.90;99.90
12771;DHT22;6449;47.666;9.160;2022-11-06T02:11:27;6.00;99.90
12771;DHT22;6449;47.666;9.160;2022-11-06T02:16:25;5.90;99.90
12771;DHT22;6449;47.666;9.160;2022-11-06T02:21:56;5.80;99.90
12771;DHT22;6449;47.666;9.160;2022-11-06T02:27:06;5.70;99.90
12771;DHT22;6449;47.666;9.160;2022-11-06T02:32:06;5.80;99.90
12771;DHT22;6449;47.666;9.160;2022-11-06T02:37:06;5.80;99.90
12771;DHT22;6449;47.666;9.160;2022-11-06T02:42:06;5.90;99.90
12771;DHT22;6449;47.666;9.160;2022-11-06T02:47:05;6.00;99.90
12771;DHT22;6449;47.666;9.160;2022-11-06T02:52:05;6.00;99.90
12771;DHT22;6449;47.666;9.160;2022-11-06T02:57:06;6.00;99.90
12771;DHT22;6449;47.666;9.160;2022-11-06T03:02:08;6.00;99.90
12771;DHT22;6449;47.666;9.160;2022-11-06T03:07:11;6.10;99.90
12771;DHT22;6449;47.666;9.160;2022-11-06T03:12:19;6.20;99.90
12771;DHT22;6449;47.666;9.160;2022-11-06T03:17:19;6.20;99.90
12771;DHT22;6449;47.666;9.160;2022-11-06T03:22:27;6.30;99.90
12771;DHT22;6449;47.666;9.160;2022-11-06T03:27:32;6.30;99.90
12771;DHT22;6449;47.666;9.160;2022-11-06T03:32:30;6.40;99.90
12771;DHT22;6449;47.666;9.160;2022-11-06T03:37:31;6.30;99.90
12771;DHT22;6449;47.666;9.160;2022-11-06T03:42:30;6.30;99.90
12771;DHT22;6449;47.666;9.160;2022-11-06T03:47:27;6.30;99.90
12771;DHT22;6449;47.666;9.160;2022-11-06T03:52:29;6.30;99.90
12771;DHT22;6449;47.666;9.160;2022-11-06T03:57:36;6.40;99.90
12771;DHT22;6449;47.666;9.160;2022-11-06T04:02:36;6.50;99.90
12771;DHT22;6449;47.666;9.160;2022-11-06T04:07:36;6.50;99.90
12771;DHT22;6449;47.666;9.160;2022-11-06T04:12:35;6.50;99.90
12771;DHT22;6449;47.666;9.160;2022-11-06T04:17:50;6.40;99.90
12771;DHT22;6449;47.666;9.160;2022-11-06T04:22:47;6.40;99.90
12771;DHT22;6449;47.666;9.160;2022-11-06T04:27:58;6.40;99.90
12771;DHT22;6449;47.666;9.160;2022-11-06T04:33:05;6.30;99.90
12771;DHT22;6449;47.666;9.160;2022-11-06T04:38:07;6.40;99.90
12771;DHT22;6449;47.666;9.160;2022-11-06T04:43:13;6.40;99.90
12771;DHT22;6449;47.666;9.160;2022-11-06T04:48:14;6.50;99.90
12771;DHT22;6449;47.666;9.160;2022-11-06T04:53:10;6.40;99.90
12771;DHT22;6449;47.666;9.160;2022-11-06T04:58:08;6.30;99.90
12771;DHT22;6449;47.666;9.160;2022-11-06T05:03:02;6.30;99.90
12771;DHT22;6449;47.666;9.160;2022-11-06T05:07:55;6.50;99.90
12771;DHT22;6449;47.666;9.160;2022-11-06T05:12:48;6.60;99.90
12771;DHT22;6449;47.666;9.160;2022-11-06T05:17:43;6.50;99.90
12771;DHT22;6449;47.666;9.160;2022-11-06T05:22:39;6.60;99.90
12771;DHT22;6449;47.666;9.160;2022-11-06T05:27:51;6.40;99.90
12771;DHT22;6449;47.666;9.160;2022-11-06T05:32:46;6.40;99.90
12771;DHT22;6449;47.666;9.160;2022-11-06T05:37:39;6.50;99.90
12771;DHT22;6449;47.666;9.160;2022-11-06T05:42:33;6.40;99.90
12771;DHT22;6449;47.666;9.160;2022-11-06T05:47:26;6.50;99.90
12771;DHT22;6449;47.666;9.160;2022-11-06T05:52:21;6.60;99.90
12771;DHT22;6449;47.666;9.160;2022-11-06T05:57:14;6.60;99.90
12771;DHT22;6449;47.666;9.160;2022-11-06T06:02:08;6.60;99.90
12771;DHT22;6449;47.666;9.160;2022-11-06T06:07:01;6.60;99.90
12771;DHT22;6449;47.666;9.160;2022-11-06T06:11:56;6.60;99.90
12771;DHT22;6449;47.666;9.160;2022-11-06T06:16:49;6.60;99.90
12771;DHT22;6449;47.666;9.160;2022-11-06T06:21:43;6.60;99.90
12771;DHT22;6449;47.666;9.160;2022-11-06T06:26:36;6.60;99.90
12771;DHT22;6449;47.666;9.160;2022-11-06T06:31:31;6.70;99.90
12771;DHT22;6449;47.666;9.160;2022-11-06T06:36:24;6.70;99.90
12771;DHT22;6449;47.666;9.160;2022-11-06T06:41:17;6.70;99.90
12771;DHT22;6449;47.666;9.160;2022-11-06T06:46:10;6.70;99.90
12771;DHT22;6449;47.666;9.160;2022-11-06T06:51:05;6.70;99.90
12771;DHT22;6449;47.666;9.160;2022-11-06T06:56:00;6.70;99.90
12771;DHT22;6449;47.666;9.160;2022-11-06T07:00:53;6.60;99.90
12771;DHT22;6449;47.666;9.160;2022-11-06T07:05:46;6.30;99.90
12771;DHT22;6449;47.666;9.160;2022-11-06T07:10:41;6.40;99.90
12771;DHT22;6449;47.666;9.160;2022-11-06T07:15:34;6.50;99.90
12771;DHT22;6449;47.666;9.160;2022-11-06T07:20:28;6.60;99.90
12771;DHT22;6449;47.666;9.160;2022-11-06T07:25:21;6.60;99.90
12771;DHT22;6449;47.666;9.160;2022-11-06T07:30:16;6.50;99.90
12771;DHT22;6449;47.666;9.160;2022-11-06T07:35:09;6.50;99.90
12771;DHT22;6449;47.666;9.160;2022-11-06T07:40:04;6.50;99.90
12771;DHT22;6449;47.666;9.160;2022-11-06T07:44:58;6.60;99.90
12771;DHT22;6449;47.666;9.160;2022-11-06T07:49:55;6.70;99.90
12771;DHT22;6449;47.666;9.160;2022-11-06T07:54:48;6.80;99.90
12771;DHT22;6449;47.666;9.160;2022-11-06T07:59:41;6.90;99.90
12771;DHT22;6449;47.666;9.160;2022-11-06T08:04:35;6.80;99.90
12771;DHT22;6449;47.666;9.160;2022-11-06T08:09:29;6.80;99.90
12771;DHT22;6449;47.666;9.160;2022-11-06T08:14:23;6.70;99.90
12771;DHT22;6449;47.666;9.160;2022-11-06T08:19:17;6.90;99.90
12771;DHT22;6449;47.666;9.160;2022-11-06T08:24:10;7.10;99.90
12771;DHT22;6449;47.666;9.160;2022-11-06T08:29:12;7.20;99.90
12771;DHT22;6449;47.666;9.160;2022-11-06T08:34:06;7.30;99.90
12771;DHT22;6449;47.666;9.160;2022-11-06T08:38:59;7.30;99.90
12771;DHT22;6449;47.666;9.160;2022-11-06T08:43:53;7.30;99.90
12771;DHT22;6449;47.666;9.160;2022-11-06T08:48:47;7.20;99.90
12771;DHT22;6449;47.666;9.160;2022-11-06T08:53:40;7.20;99.90
12771;DHT22;6449;47.666;9.160;2022-11-06T08:58:34;7.10;99.90
12771;DHT22;6449;47.666;9.160;2022-11-06T09:03:27;7.20;99.90
12771;DHT22;6449;47.666;9.160;2022-11-06T09:08:22;7.20;99.90
12771;DHT22;6449;47.666;9.160;2022-11-06T09:13:16;7.30;99.90
12771;DHT22;6449;47.666;9.160;2022-11-06T09:18:09;7.50;99.90
12771;DHT22;6449;47.666;9.160;2022-11-06T09:23:05;7.50;99.90
12771;DHT22;6449;47.666;9.160;2022-11-06T09:28:01;7.50;99.90
12771;DHT22;6449;47.666;9.160;2022-11-06T09:32:55;7.40;99.90
12771;DHT22;6449;47.666;9.160;2022-11-06T09:37:51;7.40;99.90
12771;DHT22;6449;47.666;9.160;2022-11-06T09:42:56;7.50;99.90
12771;DHT22;6449;47.666;9.160;2022-11-06T09:48:04;7.50;99.90
12771;DHT22;6449;47.666;9.160;2022-11-06T09:53:14;7.50;99.90
12771;DHT22;6449;47.666;9.160;2022-11-06T09:58:16;7.60;99.90
12771;DHT22;6449;47.666;9.160;2022-11-06T10:03:16;7.70;99.90
12771;DHT22;6449;47.666;9.160;2022-11-06T10:08:16;7.70;99.90
12771;DHT22;6449;47.666;9.160;2022-11-06T10:13:36;7.90;99.90
12771;DHT22;6449;47.666;9.160;2022-11-06T10:18:51;7.90;99.90
12771;DHT22;6449;47.666;9.160;2022-11-06T10:23:53;7.90;99.90
12771;DHT22;6449;47.666;9.160;2022-11-06T10:34:20;8.10;99.90
12771;DHT22;6449;47.666;9.160;2022-11-06T10:39:22;8.20;99.90
12771;DHT22;6449;47.666;9.160;2022-11-06T10:44:23;8.20;99.90
12771;DHT22;6449;47.666;9.160;2022-11-06T10:49:26;8.20;99.90
12771;DHT22;6449;47.666;9.160;2022-11-06T10:54:38;8.30;99.90
12771;DHT22;6449;47.666;9.160;2022-11-06T10:59:44;8.40;99.90
12771;DHT22;6449;47.666;9.160;2022-11-06T11:04:37;8.30;99.90
12771;DHT22;6449;47.666;9.160;2022-11-06T11:09:32;8.30;99.90
12771;DHT22;6449;47.666;9.160;2022-11-06T11:14:27;8.50;99.90
12771;DHT22;6449;47.666;9.160;2022-11-06T11:19:31;8.40;99.90
12771;DHT22;6449;47.666;9.160;2022-11-06T11:24:26;8.40;99.90
12771;DHT22;6449;47.666;9.160;2022-11-06T11:29:24;8.50;99.90
12771;DHT22;6449;47.666;9.160;2022-11-06T11:34:21;8.60;99.90
12771;DHT22;6449;47.666;9.160;2022-11-06T11:39:18;8.60;99.90
12771;DHT22;6449;47.666;9.160;2022-11-06T11:44:17;8.70;99.90
12771;DHT22;6449;47.666;9.160;2022-11-06T11:49:26;8.70;99.90
12771;DHT22;6449;47.666;9.160;2022-11-06T11:54:23;8.60;99.90
12771;DHT22;6449;47.666;9.160;2022-11-06T11:59:20;8.50;99.90
12771;DHT22;6449;47.666;9.160;2022-11-06T12:04:21;8.50;99.90
12771;DHT22;6449;47.666;9.160;2022-11-06T12:09:19;8.50;99.90
12771;DHT22;6449;47.666;9.160;2022-11-06T12:14:35;8.30;99.90
12771;DHT22;6449;47.666;9.160;2022-11-06T12:19:31;8.30;99.90
12771;DHT22;6449;47.666;9.160;2022-11-06T12:24:34;8.30;99.90
12771;DHT22;6449;47.666;9.160;2022-11-06T12:29:38;8.40;99.90
12771;DHT22;6449;47.666;9.160;2022-11-06T12:34:38;8.40;99.90
12771;DHT22;6449;47.666;9.160;2022-11-06T12:39:39;8.50;99.90
12771;DHT22;6449;47.666;9.160;2022-11-06T12:44:38;8.50;99.90
12771;DHT22;6449;47.666;9.160;2022-11-06T12:49:54;8.50;99.90
12771;DHT22;6449;47.666;9.160;2022-11-06T12:55:18;8.50;99.90
12771;DHT22;6449;47.666;9.160;2022-11-06T13:00:18;8.50;99.90
12771;DHT22;6449;47.666;9.160;2022-11-06T13:05:15;8.50;99.90
12771;DHT22;6449;47.666;9.160;2022-11-06T13:10:28;8.40;99.90
12771;DHT22;6449;47.666;9.160;2022-11-06T13:15:33;8.50;99.90
12771;DHT22;6449;47.666;9.160;2022-11-06T13:20:39;8.50;99.90
12771;DHT22;6449;47.666;9.160;2022-11-06T13:25:49;8.50;99.90
12771;DHT22;6449;47.666;9.160;2022-11-06T13:30:47;8.50;99.90
12771;DHT22;6449;47.666;9.160;2022-11-06T13:35:44;8.50;99.90
12771;DHT22;6449;47.666;9.160;2022-11-06T13:40:40;8.60;99.90
12771;DHT22;6449;47.666;9.160;2022-11-06T13:45:44;8.60;99.90
12771;DHT22;6449;47.666;9.160;2022-11-06T13:50:51;8.50;99.90
12771;DHT22;6449;47.666;9.160;2022-11-06T13:55:58;8.40;99.90
12771;DHT22;6449;47.666;9.160;2022-11-06T14:01:09;8.40;99.90
12771;DHT22;6449;47.666;9.160;2022-11-06T14:06:15;8.30;99.90
12771;DHT22;6449;47.666;9.160;2022-11-06T14:11:13;8.10;99.90
12771;DHT22;6449;47.666;9.160;2022-11-06T14:16:26;8.20;99.90
12771;DHT22;6449;47.666;9.160;2022-11-06T14:21:44;8.20;99.90
12771;DHT22;6449;47.666;9.160;2022-11-06T14:26:42;8.10;99.90
12771;DHT22;6449;47.666;9.160;2022-11-06T14:31:59;8.00;99.90
12771;DHT22;6449;47.666;9.160;2022-11-06T14:36:54;8.00;99.90
12771;DHT22;6449;47.666;9.160;2022-11-06T14:41:58;8.00;99.90
12771;DHT22;6449;47.666;9.160;2022-11-06T14:46:54;7.90;99.90
12771;DHT22;6449;47.666;9.160;2022-11-06T14:51:57;8.00;99.90
12771;DHT22;6449;47.666;9.160;2022-11-06T14:56:53;8.10;99.90
12771;DHT22;6449;47.666;9.160;2022-11-06T15:01:56;8.20;99.90
12771;DHT22;6449;47.666;9.160;2022-11-06T15:06:54;8.30;99.90
12771;DHT22;6449;47.666;9.160;2022-11-06T15:12:01;8.30;99.90
12771;DHT22;6449;47.666;9.160;2022-11-06T15:17:03;8.40;99.90
12771;DHT22;6449;47.666;9.160;2022-11-06T15:22:05;8.30;99.90
12771;DHT22;6449;47.666;9.160;2022-11-06T15:27:11;8.00;99.90
12771;DHT22;6449;47.666;9.160;2022-11-06T15:32:12;7.90;99.90
12771;DHT22;6449;47.666;9.160;2022-11-06T15:37:10;7.80;99.90
12771;DHT22;6449;47.666;9.160;2022-11-06T15:42:08;7.80;99.90
12771;DHT22;6449;47.666;9.160;2022-11-06T15:47:20;7.70;99.90
12771;DHT22;6449;47.666;9.160;2022-11-06T15:52:16;7.50;99.90
12771;DHT22;6449;47.666;9.160;2022-11-06T15:57:14;7.40;99.90
12771;DHT22;6449;47.666;9.160;2022-11-06T16:02:15;7.30;99.90
12771;DHT22;6449;47.666;9.160;2022-11-06T16:07:11;7.40;99.90
12771;DHT22;6449;47.666;9.160;2022-11-06T16:12:10;7.40;99.90
12771;DHT22;6449;47.666;9.160;2022-11-06T16:17:08;7.40;99.90
12771;DHT22;6449;47.666;9.160;2022-11-06T16:22:06;7.40;99.90
12771;DHT22;6449;47.666;9.160;2022-11-06T16:27:05;7.30;99.90
12771;DHT22;6449;47.666;9.160;2022-11-06T16:32:02;7.10;99.90
12771;DHT22;6449;47.666;9.160;2022-11-06T16:36:59;7.00;99.90
12771;DHT22;6449;47.666;9.160;2022-11-06T16:42:20;6.90;99.90
12771;DHT22;6449;47.666;9.160;2022-11-06T16:47:17;6.90;99.90
12771;DHT22;6449;47.666;9.160;2022-11-06T16:52:18;6.90;99.90
12771;DHT22;6449;47.666;9.160;2022-11-06T16:57:20;6.90;99.90
12771;DHT22;6449;47.666;9.160;2022-11-06T17:02:21;6.90;99.90
12771;DHT22;6449;47.666;9.160;2022-11-06T17:07:18;7.00;99.90
12771;DHT22;6449;47.666;9.160;2022-11-06T17:12:14;7.10;99.90
12771;DHT22;6449;47.666;9.160;2022-11-06T17:17:22;7.10;99.90
12771;DHT22;6449;47.666;9.160;2022-11-06T17:22:17;7.20;99.90
12771;DHT22;6449;47.666;9.160;2022-11-06T17:27:10;7.20;99.90
12771;DHT22;6449;47.666;9.160;2022-11-06T17:32:04;7.10;99.90
12771;DHT22;6449;47.666;9.160;2022-11-06T17:37:10;6.90;99.90
12771;DHT22;6449;47.666;9.160;2022-11-06T17:42:04;6.80;99.90
12771;DHT22;6449;47.666;9.160;2022-11-06T17:46:57;6.70;99.90
12771;DHT22;6449;47.666;9.160;2022-11-06T17:51:50;6.80;99.90
12771;DHT22;6449;47.666;9.160;2022-11-06T17:56:53;6.80;99.90
12771;DHT22;6449;47.666;9.160;2022-11-06T18:01:47;6.90;99.90
12771;DHT22;6449;47.666;9.160;2022-11-06T18:06:43;6.80;99.90
12771;DHT22;6449;47.666;9.160;2022-11-06T18:11:37;6.90;99.90
12771;DHT22;6449;47.666;9.160;2022-11-06T18:16:33;6.80;99.90
12771;DHT22;6449;47.666;9.160;2022-11-06T18:21:34;6.70;99.90
12771;DHT22;6449;47.666;9.160;2022-11-06T18:26:28;6.70;99.90
12771;DHT22;6449;47.666;9.160;2022-11-06T18:31:32;6.60;99.90
12771;DHT22;6449;47.666;9.160;2022-11-06T18:36:28;6.70;99.90
12771;DHT22;6449;47.666;9.160;2022-11-06T18:41:23;6.80;99.90
12771;DHT22;6449;47.666;9.160;2022-11-06T18:46:17;7.00;99.90
12771;DHT22;6449;47.666;9.160;2022-11-06T18:51:16;7.10;99.90
12771;DHT22;6449;47.666;9.160;2022-11-06T18:56:25;7.20;99.90
12771;DHT22;6449;47.666;9.160;2022-11-06T19:01:19;7.10;99.90
12771;DHT22;6449;47.666;9.160;2022-11-06T19:06:17;7.00;99.90
12771;DHT22;6449;47.666;9.160;2022-11-06T19:11:13;6.90;99.90
12771;DHT22;6449;47.666;9.160;2022-11-06T19:16:09;6.90;99.90
12771;DHT22;6449;47.666;9.160;2022-11-06T19:21:07;7.00;99.90
12771;DHT22;6449;47.666;9.160;2022-11-06T19:26:14;7.00;99.90
12771;DHT22;6449;47.666;9.160;2022-11-06T19:31:51;7.00;99.90
12771;DHT22;6449;47.666;9.160;2022-11-06T19:44:19;7.00;99.90
12771;DHT22;6449;47.666;9.160;2022-11-06T19:55:45;7.00;99.90
12771;DHT22;6449;47.666;9.160;2022-11-06T20:01:48;7.00;99.90
12771;DHT22;6449;47.666;9.160;2022-11-06T20:08:05;7.10;99.90
12771;DHT22;6449;47.666;9.160;2022-11-06T20:13:01;7.20;99.90
12771;DHT22;6449;47.666;9.160;2022-11-06T20:18:05;7.20;99.90
12771;DHT22;6449;47.666;9.160;2022-11-06T20:22:58;7.30;99.90
12771;DHT22;6449;47.666;9.160;2022-11-06T20:27:56;7.30;99.90
12771;DHT22;6449;47.666;9.160;2022-11-06T20:32:55;7.30;99.90
12771;DHT22;6449;47.666;9.160;2022-11-06T20:44:43;7.40;99.90
12771;DHT22;6449;47.666;9.160;2022-11-06T20:49:47;7.50;99.90
12771;DHT22;6449;47.666;9.160;2022-11-06T20:54:41;7.50;99.90
12771;DHT22;6449;47.666;9.160;2022-11-06T20:59:41;7.50;99.90
12771;DHT22;6449;47.666;9.160;2022-11-06T21:04:36;7.50;99.90
12771;DHT22;6449;47.666;9.160;2022-11-06T21:09:32;7.40;99.90
12771;DHT22;6449;47.666;9.160;2022-11-06T21:14:28;7.50;99.90
12771;DHT22;6449;47.666;9.160;2022-11-06T21:19:26;7.50;99.90
12771;DHT22;6449;47.666;9.160;2022-11-06T21:24:20;7.40;99.90
12771;DHT22;6449;47.666;9.160;2022-11-06T21:29:14;7.40;99.90
12771;DHT22;6449;47.666;9.160;2022-11-06T21:34:07;7.40;99.90
12771;DHT22;6449;47.666;9.160;2022-11-06T21:39:05;7.40;99.90
12771;DHT22;6449;47.666;9.160;2022-11-06T21:44:00;7.40;99.90
12771;DHT22;6449;47.666;9.160;2022-11-06T21:48:54;7.40;99.90
12771;DHT22;6449;47.666;9.160;2022-11-06T21:53:49;7.40;99.90
12771;DHT22;6449;47.666;9.160;2022-11-06T21:59:07;7.40;99.90
12771;DHT22;6449;47.666;9.160;2022-11-06T22:04:02;7.40;99.90
12771;DHT22;6449;47.666;9.160;2022-11-06T22:08:57;7.30;99.90
12771;DHT22;6449;47.666;9.160;2022-11-06T22:13:53;7.30;99.90
12771;DHT22;6449;47.666;9.160;2022-11-06T22:18:49;7.30;99.90
12771;DHT22;6449;47.666;9.160;2022-11-06T22:23:43;7.30;99.90
12771;DHT22;6449;47.666;9.160;2022-11-06T22:28:37;7.30;99.90
12771;DHT22;6449;47.666;9.160;2022-11-06T22:33:31;7.40;99.90
12771;DHT22;6449;47.666;9.160;2022-11-06T22:38:27;7.50;99.90
12771;DHT22;6449;47.666;9.160;2022-11-06T22:43:20;7.60;99.90
12771;DHT22;6449;47.666;9.160;2022-11-06T22:48:14;7.50;99.90
12771;DHT22;6449;47.666;9.160;2022-11-06T22:53:07;7.50;99.90
12771;DHT22;6449;47.666;9.160;2022-11-06T22:58:07;7.60;99.90
12771;DHT22;6449;47.666;9.160;2022-11-06T23:03:00;7.60;99.90
12771;DHT22;6449;47.666;9.160;2022-11-06T23:07:55;7.60;99.90
12771;DHT22;6449;47.666;9.160;2022-11-06T23:12:48;7.50;99.90
12771;DHT22;6449;47.666;9.160;2022-11-06T23:17:43;7.40;99.90
12771;DHT22;6449;47.666;9.160;2022-11-06T23:22:36;7.40;99.90
12771;DHT22;6449;47.666;9.160;2022-11-06T23:27:29;7.50;99.90
12771;DHT22;6449;47.666;9.160;2022-11-06T23:32:23;7.50;99.90
12771;DHT22;6449;47.666;9.160;2022-11-06T23:37:17;7.60;99.90
12771;DHT22;6449;47.666;9.160;2022-11-06T23:42:13;7.50;99.90
12771;DHT22;6449;47.666;9.160;2022-11-06T23:47:06;7.50;99.90
12771;DHT22;6449;47.666;9.160;2022-11-06T23:51:59;7.40;99.90
12771;DHT22;6449;47.666;9.160;2022-11-06T23:56:54;7.30;99.90
